Warning: Javascript must be enabled to use all the features on this page!


Page Loading - Please Wait...

Click to hideNews Bulletins

Peak Streamflow for the Nation

USGS 01472620 East Branch Perkiomen Creek near Dublin, PA

Bucks County, Pennsylvania
Hydrologic Unit Code 02040203
Latitude  40°24'14", Longitude  75°14'05" NAD27
Drainage area 4.05  square miles
Gage datum 338.14 feet above NGVD29
Output formats
Table
Graph
Tab-separated file
peakfq (watstore) format
Reselect output format
Water
Year
Date Gage
Height
(feet)
Stream-
flow
(cfs)
1984 1984-07-07 8.412 1,790
1985 1985-09-27 6.50 1,090
1986 1985-11-16 4.32 527
1987 1986-12-25 5.04 738
1988 1988-07-26 5.46 877
1989 1989-09-20 8.03 1,630
1990 1990-06-18 5.52 897
1991 1990-10-09 4.10 442
1992 1992-06-05 3.15 2642
1993 1993-08-17 6.94 1,240
1994 1993-11-28 5.87 906
1995 1995-07-17 4.47 557
1996 1996-01-19 7.22 1,330
1997 1996-10-19 8.24 1,720
1998 1998-05-08 4.26 504
1999 1999-09-16 8.57 1,860
2000 1999-12-14 3.21 275
2001 2000-12-17 8.09 1,660
2002 2002-05-13 4.55 562
2003 2003-09-23 6.19 997
2004 2004-09-28 6.49 1,090
2005 2005-04-02 6.85 1,210
2006 2006-06-28 9.60 2,360
2007 2007-01-01 5.70 861
2008 2008-03-08 5.55 823
2009 2009-08-02 5.16 715
2010 2010-03-13 5.26 743
2011 2011-08-28 9.41 2,260
2012 2012-05-27 5.10 699
2013 2012-12-21 5.75 874
2014 2014-04-30 6.82 1,200
2015 2015-01-18 3.21 275
2016 2016-02-16 3.71 378
2017 2017-07-24 4.42 532
2018 2018-09-28 5.75 874
2019 2019-07-11 7.75 1,520
2020 2020-08-04 8.88 2,000
2021 2021-09-01 10.66 2,890
?
  Peak Gage-Height Qualification Codes.
?
  Peak Streamflow Qualification Codes.